sensor_id;sensor_type;location;lat;lon;timestamp;P1;durP1;ratioP1;P2;durP2;ratioP2
42168;SDS011;27838;43.858;25.974;2024-02-23T00:01:04;23.35;;;13.77;;
42168;SDS011;27838;43.858;25.974;2024-02-23T00:03:30;24.65;;;13.60;;
42168;SDS011;27838;43.858;25.974;2024-02-23T00:05:58;21.73;;;12.45;;
42168;SDS011;27838;43.858;25.974;2024-02-23T00:08:25;24.50;;;12.00;;
42168;SDS011;27838;43.858;25.974;2024-02-23T00:10:51;24.60;;;12.70;;
42168;SDS011;27838;43.858;25.974;2024-02-23T00:13:18;20.35;;;12.20;;
42168;SDS011;27838;43.858;25.974;2024-02-23T00:15:44;20.63;;;11.95;;
42168;SDS011;27838;43.858;25.974;2024-02-23T00:18:11;20.80;;;11.55;;
42168;SDS011;27838;43.858;25.974;2024-02-23T00:20:39;23.08;;;13.25;;
42168;SDS011;27838;43.858;25.974;2024-02-23T00:23:06;23.08;;;13.02;;
42168;SDS011;27838;43.858;25.974;2024-02-23T00:25:32;21.42;;;12.40;;
42168;SDS011;27838;43.858;25.974;2024-02-23T00:27:59;20.10;;;11.15;;
42168;SDS011;27838;43.858;25.974;2024-02-23T00:30:26;19.77;;;11.52;;
42168;SDS011;27838;43.858;25.974;2024-02-23T00:32:52;18.35;;;11.57;;
42168;SDS011;27838;43.858;25.974;2024-02-23T00:35:19;17.90;;;11.23;;
42168;SDS011;27838;43.858;25.974;2024-02-23T00:37:45;19.70;;;11.27;;
42168;SDS011;27838;43.858;25.974;2024-02-23T00:40:12;19.25;;;11.57;;
42168;SDS011;27838;43.858;25.974;2024-02-23T00:42:38;21.02;;;11.73;;
42168;SDS011;27838;43.858;25.974;2024-02-23T00:45:05;19.08;;;11.73;;
42168;SDS011;27838;43.858;25.974;2024-02-23T00:47:32;19.05;;;11.55;;
42168;SDS011;27838;43.858;25.974;2024-02-23T00:50:00;23.20;;;10.98;;
42168;SDS011;27838;43.858;25.974;2024-02-23T00:52:27;18.90;;;11.60;;
42168;SDS011;27838;43.858;25.974;2024-02-23T00:54:54;21.40;;;12.20;;
42168;SDS011;27838;43.858;25.974;2024-02-23T00:57:20;22.13;;;13.25;;
42168;SDS011;27838;43.858;25.974;2024-02-23T00:59:52;21.77;;;12.70;;
42168;SDS011;27838;43.858;25.974;2024-02-23T01:02:19;21.40;;;12.80;;
42168;SDS011;27838;43.858;25.974;2024-02-23T01:04:45;21.95;;;12.60;;
42168;SDS011;27838;43.858;25.974;2024-02-23T01:07:12;25.88;;;13.50;;
42168;SDS011;27838;43.858;25.974;2024-02-23T01:09:38;21.10;;;12.05;;
42168;SDS011;27838;43.858;25.974;2024-02-23T01:12:05;22.00;;;12.20;;
42168;SDS011;27838;43.858;25.974;2024-02-23T01:14:31;24.70;;;12.95;;
42168;SDS011;27838;43.858;25.974;2024-02-23T01:16:58;19.98;;;11.80;;
42168;SDS011;27838;43.858;25.974;2024-02-23T01:19:25;24.27;;;11.48;;
42168;SDS011;27838;43.858;25.974;2024-02-23T01:21:51;18.67;;;11.70;;
42168;SDS011;27838;43.858;25.974;2024-02-23T01:24:24;18.85;;;12.60;;
42168;SDS011;27838;43.858;25.974;2024-02-23T01:26:54;21.90;;;11.77;;
42168;SDS011;27838;43.858;25.974;2024-02-23T01:29:22;20.98;;;13.07;;
42168;SDS011;27838;43.858;25.974;2024-02-23T01:31:50;21.65;;;12.30;;
42168;SDS011;27838;43.858;25.974;2024-02-23T01:34:17;22.63;;;12.48;;
42168;SDS011;27838;43.858;25.974;2024-02-23T01:36:43;20.35;;;12.57;;
42168;SDS011;27838;43.858;25.974;2024-02-23T01:39:10;21.88;;;13.15;;
42168;SDS011;27838;43.858;25.974;2024-02-23T01:41:37;20.95;;;12.00;;
42168;SDS011;27838;43.858;25.974;2024-02-23T01:44:03;24.77;;;13.68;;
42168;SDS011;27838;43.858;25.974;2024-02-23T01:46:30;23.60;;;13.50;;
42168;SDS011;27838;43.858;25.974;2024-02-23T01:48:57;22.33;;;12.82;;
42168;SDS011;27838;43.858;25.974;2024-02-23T01:51:24;19.92;;;12.98;;
42168;SDS011;27838;43.858;25.974;2024-02-23T01:53:51;24.00;;;13.13;;
42168;SDS011;27838;43.858;25.974;2024-02-23T01:56:18;21.40;;;13.52;;
42168;SDS011;27838;43.858;25.974;2024-02-23T01:58:46;22.73;;;12.48;;
42168;SDS011;27838;43.858;25.974;2024-02-23T02:01:13;20.58;;;12.43;;
42168;SDS011;27838;43.858;25.974;2024-02-23T02:03:40;21.27;;;12.10;;
42168;SDS011;27838;43.858;25.974;2024-02-23T02:06:07;22.25;;;12.25;;
42168;SDS011;27838;43.858;25.974;2024-02-23T02:08:35;18.70;;;12.05;;
42168;SDS011;27838;43.858;25.974;2024-02-23T02:11:03;27.38;;;13.05;;
42168;SDS011;27838;43.858;25.974;2024-02-23T02:13:29;19.25;;;12.93;;
42168;SDS011;27838;43.858;25.974;2024-02-23T02:16:00;21.27;;;12.02;;
42168;SDS011;27838;43.858;25.974;2024-02-23T02:18:28;28.02;;;13.35;;
42168;SDS011;27838;43.858;25.974;2024-02-23T02:20:55;25.10;;;13.18;;
42168;SDS011;27838;43.858;25.974;2024-02-23T02:23:23;20.38;;;12.38;;
42168;SDS011;27838;43.858;25.974;2024-02-23T02:25:54;23.92;;;12.07;;
42168;SDS011;27838;43.858;25.974;2024-02-23T02:28:22;21.45;;;13.27;;
42168;SDS011;27838;43.858;25.974;2024-02-23T02:30:50;23.38;;;13.45;;
42168;SDS011;27838;43.858;25.974;2024-02-23T02:33:17;21.70;;;12.85;;
42168;SDS011;27838;43.858;25.974;2024-02-23T02:35:44;20.88;;;12.70;;
42168;SDS011;27838;43.858;25.974;2024-02-23T02:38:11;21.13;;;13.00;;
42168;SDS011;27838;43.858;25.974;2024-02-23T02:40:38;22.85;;;12.95;;
42168;SDS011;27838;43.858;25.974;2024-02-23T02:43:04;21.88;;;13.18;;
42168;SDS011;27838;43.858;25.974;2024-02-23T02:45:31;27.67;;;14.15;;
42168;SDS011;27838;43.858;25.974;2024-02-23T02:48:00;20.85;;;13.38;;
42168;SDS011;27838;43.858;25.974;2024-02-23T02:50:27;26.67;;;13.15;;
42168;SDS011;27838;43.858;25.974;2024-02-23T02:52:53;19.98;;;11.73;;
42168;SDS011;27838;43.858;25.974;2024-02-23T02:55:20;19.42;;;11.77;;
42168;SDS011;27838;43.858;25.974;2024-02-23T02:57:46;21.30;;;12.25;;
42168;SDS011;27838;43.858;25.974;2024-02-23T03:00:13;21.98;;;12.38;;
42168;SDS011;27838;43.858;25.974;2024-02-23T03:02:40;21.73;;;12.20;;
42168;SDS011;27838;43.858;25.974;2024-02-23T03:05:06;19.20;;;12.20;;
42168;SDS011;27838;43.858;25.974;2024-02-23T03:07:33;24.98;;;12.10;;
42168;SDS011;27838;43.858;25.974;2024-02-23T03:10:00;20.42;;;12.07;;
42168;SDS011;27838;43.858;25.974;2024-02-23T03:12:26;23.20;;;10.82;;
42168;SDS011;27838;43.858;25.974;2024-02-23T03:14:53;18.00;;;10.90;;
42168;SDS011;27838;43.858;25.974;2024-02-23T03:17:21;16.00;;;9.35;;
42168;SDS011;27838;43.858;25.974;2024-02-23T03:19:47;12.93;;;8.35;;
42168;SDS011;27838;43.858;25.974;2024-02-23T03:22:15;12.15;;;7.63;;
42168;SDS011;27838;43.858;25.974;2024-02-23T03:24:42;11.88;;;7.35;;
42168;SDS011;27838;43.858;25.974;2024-02-23T03:27:08;12.45;;;7.68;;
42168;SDS011;27838;43.858;25.974;2024-02-23T03:29:35;9.43;;;7.30;;
42168;SDS011;27838;43.858;25.974;2024-02-23T03:32:01;9.10;;;6.68;;
42168;SDS011;27838;43.858;25.974;2024-02-23T03:34:28;9.85;;;7.43;;
42168;SDS011;27838;43.858;25.974;2024-02-23T03:36:55;11.52;;;7.03;;
42168;SDS011;27838;43.858;25.974;2024-02-23T03:39:21;11.48;;;7.07;;
42168;SDS011;27838;43.858;25.974;2024-02-23T03:41:48;7.70;;;6.10;;
42168;SDS011;27838;43.858;25.974;2024-02-23T03:44:14;14.35;;;8.20;;
42168;SDS011;27838;43.858;25.974;2024-02-23T03:46:41;14.52;;;10.02;;
42168;SDS011;27838;43.858;25.974;2024-02-23T03:49:07;14.30;;;8.50;;
42168;SDS011;27838;43.858;25.974;2024-02-23T03:51:34;20.30;;;9.98;;
42168;SDS011;27838;43.858;25.974;2024-02-23T03:54:04;19.45;;;10.55;;
42168;SDS011;27838;43.858;25.974;2024-02-23T03:56:37;21.60;;;10.63;;
42168;SDS011;27838;43.858;25.974;2024-02-23T03:59:07;19.77;;;11.32;;
42168;SDS011;27838;43.858;25.974;2024-02-23T04:01:36;19.80;;;10.35;;
42168;SDS011;27838;43.858;25.974;2024-02-23T04:04:03;15.55;;;9.88;;
42168;SDS011;27838;43.858;25.974;2024-02-23T04:06:30;18.98;;;10.07;;
42168;SDS011;27838;43.858;25.974;2024-02-23T04:08:57;16.40;;;9.75;;
42168;SDS011;27838;43.858;25.974;2024-02-23T04:11:24;16.58;;;10.00;;
42168;SDS011;27838;43.858;25.974;2024-02-23T04:13:51;17.83;;;10.35;;
42168;SDS011;27838;43.858;25.974;2024-02-23T04:16:17;19.80;;;10.80;;
42168;SDS011;27838;43.858;25.974;2024-02-23T04:18:44;27.10;;;11.50;;
42168;SDS011;27838;43.858;25.974;2024-02-23T04:21:10;19.27;;;10.52;;
42168;SDS011;27838;43.858;25.974;2024-02-23T04:23:37;24.23;;;9.85;;
42168;SDS011;27838;43.858;25.974;2024-02-23T04:26:03;23.20;;;10.05;;
42168;SDS011;27838;43.858;25.974;2024-02-23T04:28:30;24.23;;;10.57;;
42168;SDS011;27838;43.858;25.974;2024-02-23T04:30:58;28.00;;;10.80;;
42168;SDS011;27838;43.858;25.974;2024-02-23T04:33:25;27.58;;;11.93;;
42168;SDS011;27838;43.858;25.974;2024-02-23T04:35:52;40.03;;;13.30;;
42168;SDS011;27838;43.858;25.974;2024-02-23T04:38:18;51.95;;;13.15;;
42168;SDS011;27838;43.858;25.974;2024-02-23T04:40:45;49.83;;;14.55;;
42168;SDS011;27838;43.858;25.974;2024-02-23T04:43:11;42.53;;;12.40;;
42168;SDS011;27838;43.858;25.974;2024-02-23T04:45:38;39.45;;;12.73;;
42168;SDS011;27838;43.858;25.974;2024-02-23T04:48:04;22.23;;;11.45;;
42168;SDS011;27838;43.858;25.974;2024-02-23T04:50:31;23.35;;;10.48;;
42168;SDS011;27838;43.858;25.974;2024-02-23T04:52:58;19.20;;;11.07;;
42168;SDS011;27838;43.858;25.974;2024-02-23T04:55:24;23.98;;;10.35;;
42168;SDS011;27838;43.858;25.974;2024-02-23T04:57:51;17.15;;;11.10;;
42168;SDS011;27838;43.858;25.974;2024-02-23T05:00:18;18.38;;;10.43;;
42168;SDS011;27838;43.858;25.974;2024-02-23T05:02:45;21.13;;;11.05;;
42168;SDS011;27838;43.858;25.974;2024-02-23T05:05:12;31.00;;;13.10;;
42168;SDS011;27838;43.858;25.974;2024-02-23T05:07:38;22.20;;;12.27;;
42168;SDS011;27838;43.858;25.974;2024-02-23T05:10:05;26.50;;;12.25;;
42168;SDS011;27838;43.858;25.974;2024-02-23T05:12:32;37.85;;;13.50;;
42168;SDS011;27838;43.858;25.974;2024-02-23T05:14:58;26.33;;;13.13;;
42168;SDS011;27838;43.858;25.974;2024-02-23T05:17:25;28.73;;;12.70;;
42168;SDS011;27838;43.858;25.974;2024-02-23T05:19:52;28.50;;;12.70;;
42168;SDS011;27838;43.858;25.974;2024-02-23T05:22:18;27.45;;;13.77;;
42168;SDS011;27838;43.858;25.974;2024-02-23T05:24:45;36.65;;;13.30;;
42168;SDS011;27838;43.858;25.974;2024-02-23T05:27:12;47.40;;;13.30;;
42168;SDS011;27838;43.858;25.974;2024-02-23T05:29:38;32.03;;;12.85;;
42168;SDS011;27838;43.858;25.974;2024-02-23T05:32:05;39.63;;;13.80;;
42168;SDS011;27838;43.858;25.974;2024-02-23T05:34:32;33.22;;;12.63;;
42168;SDS011;27838;43.858;25.974;2024-02-23T05:37:00;36.00;;;13.52;;
42168;SDS011;27838;43.858;25.974;2024-02-23T05:39:26;28.13;;;12.88;;
42168;SDS011;27838;43.858;25.974;2024-02-23T05:41:54;39.60;;;14.25;;
42168;SDS011;27838;43.858;25.974;2024-02-23T05:44:20;42.38;;;16.85;;
42168;SDS011;27838;43.858;25.974;2024-02-23T05:46:47;33.60;;;14.35;;
42168;SDS011;27838;43.858;25.974;2024-02-23T05:49:13;29.13;;;12.25;;
42168;SDS011;27838;43.858;25.974;2024-02-23T05:51:40;28.88;;;14.32;;
42168;SDS011;27838;43.858;25.974;2024-02-23T05:54:07;44.17;;;19.30;;
42168;SDS011;27838;43.858;25.974;2024-02-23T05:56:34;48.28;;;17.85;;
42168;SDS011;27838;43.858;25.974;2024-02-23T05:59:02;39.92;;;14.85;;
42168;SDS011;27838;43.858;25.974;2024-02-23T06:01:29;46.08;;;17.45;;
42168;SDS011;27838;43.858;25.974;2024-02-23T06:03:55;55.83;;;16.77;;
42168;SDS011;27838;43.858;25.974;2024-02-23T06:06:22;50.45;;;17.13;;
42168;SDS011;27838;43.858;25.974;2024-02-23T06:08:48;71.60;;;16.33;;
42168;SDS011;27838;43.858;25.974;2024-02-23T06:11:16;46.08;;;16.95;;
42168;SDS011;27838;43.858;25.974;2024-02-23T06:13:42;52.08;;;16.23;;
42168;SDS011;27838;43.858;25.974;2024-02-23T06:16:09;31.35;;;11.57;;
42168;SDS011;27838;43.858;25.974;2024-02-23T06:18:38;22.55;;;9.90;;
42168;SDS011;27838;43.858;25.974;2024-02-23T06:21:15;11.43;;;8.40;;
42168;SDS011;27838;43.858;25.974;2024-02-23T06:23:42;16.83;;;7.97;;
42168;SDS011;27838;43.858;25.974;2024-02-23T06:26:10;11.82;;;7.65;;
42168;SDS011;27838;43.858;25.974;2024-02-23T06:28:37;13.35;;;7.00;;
42168;SDS011;27838;43.858;25.974;2024-02-23T06:31:06;15.00;;;7.55;;
42168;SDS011;27838;43.858;25.974;2024-02-23T06:33:34;13.27;;;7.00;;
42168;SDS011;27838;43.858;25.974;2024-02-23T06:36:00;11.38;;;6.68;;
42168;SDS011;27838;43.858;25.974;2024-02-23T06:38:28;9.10;;;6.95;;
42168;SDS011;27838;43.858;25.974;2024-02-23T06:40:55;12.73;;;6.95;;
42168;SDS011;27838;43.858;25.974;2024-02-23T06:43:22;11.02;;;6.68;;
42168;SDS011;27838;43.858;25.974;2024-02-23T06:45:49;14.68;;;6.95;;
42168;SDS011;27838;43.858;25.974;2024-02-23T06:48:16;12.38;;;7.25;;
42168;SDS011;27838;43.858;25.974;2024-02-23T06:50:42;10.52;;;7.97;;
42168;SDS011;27838;43.858;25.974;2024-02-23T06:53:09;15.27;;;7.25;;
42168;SDS011;27838;43.858;25.974;2024-02-23T06:55:35;11.10;;;7.07;;
42168;SDS011;27838;43.858;25.974;2024-02-23T06:58:02;11.85;;;6.93;;
42168;SDS011;27838;43.858;25.974;2024-02-23T07:00:30;12.45;;;6.65;;
42168;SDS011;27838;43.858;25.974;2024-02-23T07:02:56;14.00;;;7.07;;
42168;SDS011;27838;43.858;25.974;2024-02-23T07:05:24;11.88;;;6.80;;
42168;SDS011;27838;43.858;25.974;2024-02-23T07:07:51;12.57;;;7.40;;
42168;SDS011;27838;43.858;25.974;2024-02-23T07:10:17;11.75;;;8.13;;
42168;SDS011;27838;43.858;25.974;2024-02-23T07:12:45;24.20;;;17.00;;
42168;SDS011;27838;43.858;25.974;2024-02-23T07:15:11;11.18;;;7.75;;
42168;SDS011;27838;43.858;25.974;2024-02-23T07:17:38;12.38;;;8.48;;
42168;SDS011;27838;43.858;25.974;2024-02-23T07:20:05;13.95;;;7.22;;
42168;SDS011;27838;43.858;25.974;2024-02-23T07:22:32;11.68;;;7.40;;
42168;SDS011;27838;43.858;25.974;2024-02-23T07:24:59;10.98;;;8.15;;
42168;SDS011;27838;43.858;25.974;2024-02-23T07:27:26;15.40;;;10.52;;
42168;SDS011;27838;43.858;25.974;2024-02-23T07:29:53;10.85;;;7.47;;
42168;SDS011;27838;43.858;25.974;2024-02-23T07:32:19;12.80;;;8.13;;
42168;SDS011;27838;43.858;25.974;2024-02-23T07:34:46;10.77;;;7.85;;
42168;SDS011;27838;43.858;25.974;2024-02-23T07:37:13;12.95;;;9.20;;
42168;SDS011;27838;43.858;25.974;2024-02-23T07:39:39;11.73;;;8.63;;
42168;SDS011;27838;43.858;25.974;2024-02-23T07:42:06;10.18;;;7.25;;
42168;SDS011;27838;43.858;25.974;2024-02-23T07:44:35;20.02;;;10.38;;
42168;SDS011;27838;43.858;25.974;2024-02-23T07:47:02;14.40;;;8.55;;
42168;SDS011;27838;43.858;25.974;2024-02-23T07:49:29;16.88;;;9.10;;
42168;SDS011;27838;43.858;25.974;2024-02-23T07:51:55;14.95;;;8.25;;
42168;SDS011;27838;43.858;25.974;2024-02-23T07:54:22;11.00;;;8.23;;
42168;SDS011;27838;43.858;25.974;2024-02-23T07:56:49;16.10;;;8.52;;
42168;SDS011;27838;43.858;25.974;2024-02-23T07:59:15;12.20;;;8.38;;
42168;SDS011;27838;43.858;25.974;2024-02-23T08:01:42;13.82;;;7.55;;
42168;SDS011;27838;43.858;25.974;2024-02-23T08:04:08;18.98;;;8.80;;
42168;SDS011;27838;43.858;25.974;2024-02-23T08:06:35;18.27;;;9.90;;
42168;SDS011;27838;43.858;25.974;2024-02-23T08:09:01;21.38;;;11.82;;
42168;SDS011;27838;43.858;25.974;2024-02-23T08:11:28;10.55;;;7.50;;
42168;SDS011;27838;43.858;25.974;2024-02-23T08:13:54;23.67;;;13.57;;
42168;SDS011;27838;43.858;25.974;2024-02-23T08:16:21;16.33;;;9.52;;
42168;SDS011;27838;43.858;25.974;2024-02-23T08:18:48;9.90;;;5.93;;
42168;SDS011;27838;43.858;25.974;2024-02-23T08:21:14;13.10;;;7.55;;
42168;SDS011;27838;43.858;25.974;2024-02-23T08:23:41;12.88;;;7.90;;
42168;SDS011;27838;43.858;25.974;2024-02-23T08:26:07;10.27;;;6.28;;
42168;SDS011;27838;43.858;25.974;2024-02-23T08:28:35;11.27;;;6.57;;
42168;SDS011;27838;43.858;25.974;2024-02-23T08:31:01;8.73;;;5.95;;
42168;SDS011;27838;43.858;25.974;2024-02-23T08:33:28;12.18;;;8.27;;
42168;SDS011;27838;43.858;25.974;2024-02-23T08:35:54;7.45;;;5.65;;
42168;SDS011;27838;43.858;25.974;2024-02-23T08:38:21;7.82;;;5.75;;
42168;SDS011;27838;43.858;25.974;2024-02-23T08:40:48;9.88;;;6.47;;
42168;SDS011;27838;43.858;25.974;2024-02-23T08:43:15;9.40;;;5.30;;
42168;SDS011;27838;43.858;25.974;2024-02-23T08:45:41;13.77;;;6.28;;
42168;SDS011;27838;43.858;25.974;2024-02-23T08:48:08;10.85;;;5.95;;
42168;SDS011;27838;43.858;25.974;2024-02-23T08:50:39;8.40;;;5.18;;
42168;SDS011;27838;43.858;25.974;2024-02-23T08:53:06;11.07;;;6.85;;
42168;SDS011;27838;43.858;25.974;2024-02-23T08:55:33;9.48;;;5.60;;
42168;SDS011;27838;43.858;25.974;2024-02-23T08:57:59;9.77;;;6.15;;
42168;SDS011;27838;43.858;25.974;2024-02-23T09:00:26;12.23;;;6.63;;
42168;SDS011;27838;43.858;25.974;2024-02-23T09:02:53;10.95;;;6.47;;
42168;SDS011;27838;43.858;25.974;2024-02-23T09:05:20;11.98;;;6.15;;
42168;SDS011;27838;43.858;25.974;2024-02-23T09:07:46;11.98;;;6.15;;
42168;SDS011;27838;43.858;25.974;2024-02-23T09:10:15;12.07;;;8.05;;
42168;SDS011;27838;43.858;25.974;2024-02-23T09:12:43;13.32;;;8.35;;
42168;SDS011;27838;43.858;25.974;2024-02-23T09:15:09;11.80;;;6.75;;
42168;SDS011;27838;43.858;25.974;2024-02-23T09:17:36;19.40;;;7.85;;
42168;SDS011;27838;43.858;25.974;2024-02-23T09:20:03;12.63;;;7.30;;
42168;SDS011;27838;43.858;25.974;2024-02-23T09:22:30;12.38;;;6.93;;
42168;SDS011;27838;43.858;25.974;2024-02-23T09:24:56;15.95;;;8.38;;
42168;SDS011;27838;43.858;25.974;2024-02-23T09:27:23;14.35;;;7.75;;
42168;SDS011;27838;43.858;25.974;2024-02-23T09:29:49;13.02;;;8.63;;
42168;SDS011;27838;43.858;25.974;2024-02-23T09:32:16;10.43;;;6.90;;
42168;SDS011;27838;43.858;25.974;2024-02-23T09:34:43;12.63;;;9.45;;
42168;SDS011;27838;43.858;25.974;2024-02-23T09:37:09;11.93;;;7.45;;
42168;SDS011;27838;43.858;25.974;2024-02-23T09:39:36;9.05;;;6.93;;
42168;SDS011;27838;43.858;25.974;2024-02-23T09:42:03;12.35;;;5.80;;
42168;SDS011;27838;43.858;25.974;2024-02-23T09:44:36;17.52;;;6.45;;
42168;SDS011;27838;43.858;25.974;2024-02-23T09:47:03;9.18;;;6.07;;
42168;SDS011;27838;43.858;25.974;2024-02-23T09:49:38;10.20;;;6.45;;
42168;SDS011;27838;43.858;25.974;2024-02-23T09:52:09;11.30;;;6.57;;
42168;SDS011;27838;43.858;25.974;2024-02-23T09:54:39;9.55;;;5.97;;
42168;SDS011;27838;43.858;25.974;2024-02-23T09:57:08;13.43;;;7.13;;
42168;SDS011;27838;43.858;25.974;2024-02-23T09:59:36;15.82;;;6.95;;
42168;SDS011;27838;43.858;25.974;2024-02-23T10:02:09;8.77;;;5.82;;
42168;SDS011;27838;43.858;25.974;2024-02-23T10:04:40;10.05;;;5.07;;
42168;SDS011;27838;43.858;25.974;2024-02-23T10:07:09;16.98;;;5.65;;
42168;SDS011;27838;43.858;25.974;2024-02-23T10:09:36;9.98;;;5.70;;
42168;SDS011;27838;43.858;25.974;2024-02-23T10:12:03;10.38;;;5.72;;
42168;SDS011;27838;43.858;25.974;2024-02-23T10:14:30;9.35;;;5.68;;
42168;SDS011;27838;43.858;25.974;2024-02-23T10:16:56;7.78;;;5.43;;
42168;SDS011;27838;43.858;25.974;2024-02-23T10:19:23;10.32;;;6.05;;
42168;SDS011;27838;43.858;25.974;2024-02-23T10:21:53;11.52;;;6.03;;
42168;SDS011;27838;43.858;25.974;2024-02-23T10:24:20;12.10;;;5.47;;
42168;SDS011;27838;43.858;25.974;2024-02-23T10:26:49;7.80;;;4.90;;
42168;SDS011;27838;43.858;25.974;2024-02-23T10:29:15;6.13;;;4.70;;
42168;SDS011;27838;43.858;25.974;2024-02-23T10:31:42;9.60;;;5.47;;
42168;SDS011;27838;43.858;25.974;2024-02-23T10:34:14;8.27;;;4.95;;
42168;SDS011;27838;43.858;25.974;2024-02-23T10:36:44;8.80;;;4.72;;
42168;SDS011;27838;43.858;25.974;2024-02-23T10:39:15;13.85;;;5.78;;
42168;SDS011;27838;43.858;25.974;2024-02-23T10:41:46;13.75;;;5.60;;
42168;SDS011;27838;43.858;25.974;2024-02-23T10:44:18;8.57;;;4.95;;
42168;SDS011;27838;43.858;25.974;2024-02-23T10:46:45;6.72;;;4.85;;
42168;SDS011;27838;43.858;25.974;2024-02-23T10:49:12;12.07;;;5.32;;
42168;SDS011;27838;43.858;25.974;2024-02-23T10:51:42;8.98;;;4.78;;
42168;SDS011;27838;43.858;25.974;2024-02-23T10:54:09;12.68;;;4.97;;
42168;SDS011;27838;43.858;25.974;2024-02-23T10:56:37;8.95;;;4.80;;
42168;SDS011;27838;43.858;25.974;2024-02-23T10:59:04;6.78;;;4.93;;
42168;SDS011;27838;43.858;25.974;2024-02-23T11:01:32;9.60;;;4.63;;
42168;SDS011;27838;43.858;25.974;2024-02-23T11:04:01;7.55;;;4.32;;
42168;SDS011;27838;43.858;25.974;2024-02-23T11:06:28;6.22;;;4.80;;
42168;SDS011;27838;43.858;25.974;2024-02-23T11:09:04;7.90;;;5.15;;
42168;SDS011;27838;43.858;25.974;2024-02-23T11:11:32;7.05;;;5.15;;
42168;SDS011;27838;43.858;25.974;2024-02-23T11:13:59;5.25;;;4.28;;
42168;SDS011;27838;43.858;25.974;2024-02-23T11:16:29;9.32;;;4.43;;
42168;SDS011;27838;43.858;25.974;2024-02-23T11:19:04;5.13;;;3.83;;
42168;SDS011;27838;43.858;25.974;2024-02-23T11:21:36;6.65;;;4.80;;
42168;SDS011;27838;43.858;25.974;2024-02-23T11:24:04;6.40;;;3.97;;
42168;SDS011;27838;43.858;25.974;2024-02-23T11:26:31;21.65;;;4.80;;
42168;SDS011;27838;43.858;25.974;2024-02-23T11:28:58;8.45;;;4.47;;
42168;SDS011;27838;43.858;25.974;2024-02-23T11:31:28;10.18;;;4.32;;
42168;SDS011;27838;43.858;25.974;2024-02-23T11:33:56;12.82;;;5.20;;
42168;SDS011;27838;43.858;25.974;2024-02-23T11:36:32;5.72;;;4.55;;
42168;SDS011;27838;43.858;25.974;2024-02-23T11:38:59;7.15;;;4.85;;
42168;SDS011;27838;43.858;25.974;2024-02-23T11:41:28;9.00;;;3.97;;
42168;SDS011;27838;43.858;25.974;2024-02-23T11:43:55;5.75;;;4.10;;
42168;SDS011;27838;43.858;25.974;2024-02-23T11:46:23;8.40;;;4.13;;
42168;SDS011;27838;43.858;25.974;2024-02-23T11:48:49;10.88;;;4.10;;
42168;SDS011;27838;43.858;25.974;2024-02-23T11:51:22;7.78;;;4.03;;
42168;SDS011;27838;43.858;25.974;2024-02-23T11:53:51;5.57;;;3.95;;
42168;SDS011;27838;43.858;25.974;2024-02-23T11:56:18;5.82;;;3.60;;
42168;SDS011;27838;43.858;25.974;2024-02-23T11:58:48;6.75;;;4.47;;
42168;SDS011;27838;43.858;25.974;2024-02-23T12:01:14;8.50;;;4.45;;
42168;SDS011;27838;43.858;25.974;2024-02-23T12:03:41;7.07;;;4.15;;
42168;SDS011;27838;43.858;25.974;2024-02-23T12:06:09;16.38;;;5.00;;
42168;SDS011;27838;43.858;25.974;2024-02-23T12:08:36;6.30;;;4.13;;
42168;SDS011;27838;43.858;25.974;2024-02-23T12:11:04;9.98;;;4.43;;
42168;SDS011;27838;43.858;25.974;2024-02-23T12:13:33;5.53;;;3.95;;
42168;SDS011;27838;43.858;25.974;2024-02-23T12:16:00;7.43;;;4.60;;
42168;SDS011;27838;43.858;25.974;2024-02-23T12:18:27;5.55;;;4.05;;
42168;SDS011;27838;43.858;25.974;2024-02-23T12:20:58;6.93;;;3.97;;
42168;SDS011;27838;43.858;25.974;2024-02-23T12:23:27;6.03;;;4.53;;
42168;SDS011;27838;43.858;25.974;2024-02-23T12:26:03;4.78;;;3.97;;
42168;SDS011;27838;43.858;25.974;2024-02-23T12:28:30;6.00;;;4.20;;
42168;SDS011;27838;43.858;25.974;2024-02-23T12:30:58;4.80;;;3.92;;
42168;SDS011;27838;43.858;25.974;2024-02-23T12:33:28;16.33;;;11.20;;
42168;SDS011;27838;43.858;25.974;2024-02-23T12:35:55;8.20;;;6.35;;
42168;SDS011;27838;43.858;25.974;2024-02-23T12:38:22;17.08;;;11.73;;
42168;SDS011;27838;43.858;25.974;2024-02-23T12:40:49;10.50;;;5.43;;
42168;SDS011;27838;43.858;25.974;2024-02-23T12:43:15;16.60;;;4.32;;
42168;SDS011;27838;43.858;25.974;2024-02-23T12:45:42;10.25;;;4.68;;
42168;SDS011;27838;43.858;25.974;2024-02-23T12:48:10;4.78;;;3.38;;
42168;SDS011;27838;43.858;25.974;2024-02-23T12:50:36;5.22;;;4.38;;
42168;SDS011;27838;43.858;25.974;2024-02-23T12:53:03;5.35;;;4.85;;
42168;SDS011;27838;43.858;25.974;2024-02-23T12:55:30;13.68;;;12.27;;
42168;SDS011;27838;43.858;25.974;2024-02-23T12:57:56;10.18;;;5.07;;
42168;SDS011;27838;43.858;25.974;2024-02-23T13:00:23;9.57;;;7.70;;
42168;SDS011;27838;43.858;25.974;2024-02-23T13:02:49;10.82;;;7.85;;
42168;SDS011;27838;43.858;25.974;2024-02-23T13:05:16;8.45;;;5.15;;
42168;SDS011;27838;43.858;25.974;2024-02-23T13:07:43;7.18;;;3.70;;
42168;SDS011;27838;43.858;25.974;2024-02-23T13:10:09;7.95;;;5.95;;
42168;SDS011;27838;43.858;25.974;2024-02-23T13:12:36;8.50;;;5.72;;
42168;SDS011;27838;43.858;25.974;2024-02-23T13:15:02;8.73;;;5.50;;
42168;SDS011;27838;43.858;25.974;2024-02-23T13:17:29;5.25;;;4.13;;
42168;SDS011;27838;43.858;25.974;2024-02-23T13:19:55;4.13;;;3.25;;
42168;SDS011;27838;43.858;25.974;2024-02-23T13:22:22;4.18;;;3.70;;
42168;SDS011;27838;43.858;25.974;2024-02-23T13:24:48;7.70;;;4.47;;
42168;SDS011;27838;43.858;25.974;2024-02-23T13:27:15;5.40;;;3.78;;
42168;SDS011;27838;43.858;25.974;2024-02-23T13:29:41;9.30;;;4.10;;
42168;SDS011;27838;43.858;25.974;2024-02-23T13:32:08;6.97;;;4.05;;
42168;SDS011;27838;43.858;25.974;2024-02-23T13:34:36;13.07;;;5.47;;
42168;SDS011;27838;43.858;25.974;2024-02-23T13:37:02;11.10;;;8.35;;
42168;SDS011;27838;43.858;25.974;2024-02-23T13:39:29;4.38;;;3.92;;
42168;SDS011;27838;43.858;25.974;2024-02-23T13:41:55;5.57;;;3.30;;
42168;SDS011;27838;43.858;25.974;2024-02-23T13:44:22;8.40;;;4.07;;
42168;SDS011;27838;43.858;25.974;2024-02-23T13:46:48;6.03;;;5.20;;
42168;SDS011;27838;43.858;25.974;2024-02-23T13:49:15;8.18;;;5.45;;
42168;SDS011;27838;43.858;25.974;2024-02-23T13:51:41;4.22;;;3.53;;
42168;SDS011;27838;43.858;25.974;2024-02-23T13:54:08;6.22;;;4.80;;
42168;SDS011;27838;43.858;25.974;2024-02-23T13:56:34;6.38;;;5.60;;
42168;SDS011;27838;43.858;25.974;2024-02-23T13:59:01;7.57;;;3.88;;
42168;SDS011;27838;43.858;25.974;2024-02-23T14:01:28;8.50;;;3.60;;
42168;SDS011;27838;43.858;25.974;2024-02-23T14:03:55;8.80;;;6.68;;
42168;SDS011;27838;43.858;25.974;2024-02-23T14:06:21;9.63;;;4.00;;
42168;SDS011;27838;43.858;25.974;2024-02-23T14:08:48;13.05;;;4.18;;
42168;SDS011;27838;43.858;25.974;2024-02-23T14:11:15;27.30;;;19.73;;
42168;SDS011;27838;43.858;25.974;2024-02-23T14:13:43;18.23;;;13.52;;
42168;SDS011;27838;43.858;25.974;2024-02-23T14:16:11;11.43;;;4.68;;
42168;SDS011;27838;43.858;25.974;2024-02-23T14:18:37;12.02;;;9.20;;